createdAt,value
2022-12-08T00:01:16.843Z,8.20
2022-12-08T00:03:44.343Z,8.80
2022-12-08T00:06:50.313Z,8.97
2022-12-08T00:09:37.970Z,9.09
2022-12-08T00:12:09.639Z,9.28
2022-12-08T00:14:43.459Z,9.51
2022-12-08T00:17:12.055Z,8.19
2022-12-08T00:19:39.998Z,7.78
2022-12-08T00:22:09.259Z,7.92
2022-12-08T00:24:40.915Z,8.05
2022-12-08T00:27:12.570Z,7.99
2022-12-08T00:29:39.632Z,8.16
2022-12-08T00:32:07.097Z,8.49
2022-12-08T00:34:34.853Z,8.68
2022-12-08T00:37:01.748Z,8.47
2022-12-08T00:39:28.593Z,8.35
2022-12-08T00:42:13.605Z,8.32
2022-12-08T00:44:42.900Z,8.30
2022-12-08T00:47:10.718Z,8.74
2022-12-08T00:49:37.679Z,8.81
2022-12-08T00:52:04.696Z,8.64
2022-12-08T00:54:31.748Z,8.46
2022-12-08T00:56:58.620Z,8.34
2022-12-08T00:59:25.612Z,8.30
2022-12-08T01:01:52.576Z,7.70
2022-12-08T01:04:20.039Z,7.94
2022-12-08T01:06:47.894Z,8.15
2022-12-08T01:09:16.054Z,8.26
2022-12-08T01:11:44.663Z,8.26
2022-12-08T01:14:12.506Z,8.09
2022-12-08T01:16:41.599Z,8.23
2022-12-08T01:19:11.077Z,8.40
2022-12-08T01:21:38.058Z,8.58
2022-12-08T01:24:05.377Z,8.70
2022-12-08T01:26:32.244Z,8.98
2022-12-08T01:28:59.200Z,9.09
2022-12-08T01:31:26.273Z,9.32
2022-12-08T01:33:53.463Z,9.38
2022-12-08T01:36:26.067Z,9.51
2022-12-08T01:38:54.145Z,9.68
2022-12-08T01:41:23.998Z,9.71
2022-12-08T01:43:53.881Z,9.82
2022-12-08T01:46:20.785Z,9.79
2022-12-08T01:48:48.550Z,9.93
2022-12-08T01:51:15.775Z,9.80
2022-12-08T01:53:42.747Z,9.82
2022-12-08T01:56:18.680Z,9.66
2022-12-08T01:58:49.681Z,9.61
2022-12-08T02:01:17.469Z,9.48
2022-12-08T02:04:00.556Z,9.08
2022-12-08T02:06:35.171Z,9.05
2022-12-08T02:09:05.488Z,9.35
2022-12-08T02:11:32.444Z,9.08
2022-12-08T02:14:01.728Z,9.22
2022-12-08T02:16:42.350Z,9.24
2022-12-08T02:19:34.959Z,9.36
2022-12-08T02:22:07.488Z,9.14
2022-12-08T02:24:46.121Z,8.54
2022-12-08T02:27:18.740Z,8.43
2022-12-08T02:30:18.770Z,7.53
2022-12-08T02:33:05.057Z,6.20
2022-12-08T02:35:36.895Z,6.09
2022-12-08T02:38:30.139Z,5.52
2022-12-08T02:41:08.762Z,5.57
2022-12-08T02:43:45.800Z,6.17
2022-12-08T02:46:27.640Z,6.79
2022-12-08T02:48:56.956Z,7.11
2022-12-08T02:51:24.002Z,7.10
2022-12-08T02:53:51.293Z,6.66
2022-12-08T02:56:39.446Z,6.55
2022-12-08T02:59:47.778Z,6.83
2022-12-08T03:02:32.265Z,7.17
2022-12-08T03:05:17.237Z,7.18
2022-12-08T03:08:03.402Z,7.22
2022-12-08T03:10:53.598Z,7.09
2022-12-08T03:13:24.837Z,7.47
2022-12-08T03:15:55.203Z,7.91
2022-12-08T03:18:27.840Z,8.21
2022-12-08T03:20:55.389Z,8.16
2022-12-08T03:23:24.499Z,7.49
2022-12-08T03:26:05.062Z,7.26
2022-12-08T03:28:32.005Z,6.67
2022-12-08T03:31:06.379Z,6.71
2022-12-08T03:33:38.253Z,6.57
2022-12-08T03:36:08.418Z,6.24
2022-12-08T03:38:41.377Z,6.50
2022-12-08T03:41:20.169Z,6.67
2022-12-08T03:43:59.498Z,6.86
2022-12-08T03:48:54.744Z,6.92
2022-12-08T03:51:21.974Z,6.89
2022-12-08T03:53:49.584Z,6.67
2022-12-08T03:56:34.086Z,6.62
2022-12-08T03:59:01.667Z,7.13
2022-12-08T04:01:28.869Z,6.78
2022-12-08T04:03:55.737Z,6.65
2022-12-08T04:06:22.774Z,6.52
2022-12-08T04:08:50.466Z,6.51
2022-12-08T04:11:18.234Z,6.74
2022-12-08T04:13:45.406Z,6.99
2022-12-08T04:16:17.438Z,7.02
2022-12-08T04:18:44.747Z,6.94
2022-12-08T04:21:11.925Z,7.04
2022-12-08T04:23:38.874Z,7.17
2022-12-08T04:26:06.099Z,7.12
2022-12-08T04:28:32.996Z,6.97
2022-12-08T04:31:00.209Z,6.82
2022-12-08T04:33:27.248Z,6.92
2022-12-08T04:35:54.293Z,7.37
2022-12-08T04:38:21.400Z,7.58
2022-12-08T04:40:48.388Z,7.64
2022-12-08T04:43:15.541Z,7.52
2022-12-08T04:45:43.157Z,7.42
2022-12-08T04:48:12.693Z,6.12
2022-12-08T04:50:41.967Z,5.52
2022-12-08T04:53:10.249Z,4.91
2022-12-08T04:55:45.037Z,4.84
2022-12-08T04:58:14.218Z,5.17
2022-12-08T05:00:41.435Z,5.41
2022-12-08T05:03:09.329Z,5.78
2022-12-08T05:05:36.246Z,5.68
2022-12-08T05:08:03.436Z,5.91
2022-12-08T05:10:30.406Z,6.30
2022-12-08T05:12:58.975Z,6.39
2022-12-08T05:15:26.194Z,6.35
2022-12-08T05:17:53.098Z,6.41
2022-12-08T05:20:20.329Z,6.41
2022-12-08T05:22:47.302Z,6.74
2022-12-08T05:25:15.052Z,6.35
2022-12-08T05:27:43.225Z,5.97
2022-12-08T05:30:10.332Z,5.16
2022-12-08T05:32:37.470Z,5.05
2022-12-08T05:35:04.718Z,5.40
2022-12-08T05:37:31.669Z,5.79
2022-12-08T05:39:58.736Z,5.85
2022-12-08T05:42:25.637Z,6.23
2022-12-08T05:44:53.066Z,6.35
2022-12-08T05:47:20.188Z,6.29
2022-12-08T05:49:47.103Z,6.56
2022-12-08T05:52:13.966Z,6.71
2022-12-08T05:54:40.883Z,7.01
2022-12-08T05:57:07.778Z,6.95
2022-12-08T05:59:34.845Z,7.42
2022-12-08T06:02:01.851Z,7.39
2022-12-08T06:04:28.859Z,6.85
2022-12-08T06:06:55.902Z,6.15
2022-12-08T06:09:22.812Z,5.52
2022-12-08T06:11:49.796Z,5.08
2022-12-08T06:14:16.610Z,5.17
2022-12-08T06:16:43.604Z,4.79
2022-12-08T06:19:10.554Z,4.46
2022-12-08T06:21:37.457Z,4.28
2022-12-08T06:24:04.534Z,4.48
2022-12-08T06:26:31.381Z,4.75
2022-12-08T06:29:00.751Z,4.87
2022-12-08T06:31:28.446Z,5.13
2022-12-08T06:33:55.584Z,5.15
2022-12-08T06:36:26.337Z,5.07
2022-12-08T06:38:53.273Z,5.12
2022-12-08T06:41:20.375Z,4.96
2022-12-08T06:43:47.436Z,4.98
2022-12-08T06:46:16.959Z,5.71
2022-12-08T06:48:44.422Z,6.53
2022-12-08T06:51:15.004Z,6.96
2022-12-08T06:53:42.910Z,7.23
2022-12-08T06:56:11.196Z,8.77
2022-12-08T06:58:38.471Z,9.86
2022-12-08T07:01:11.709Z,10.39
2022-12-08T07:03:39.474Z,10.72
2022-12-08T07:06:07.147Z,11.12
2022-12-08T07:08:34.945Z,11.78
2022-12-08T07:11:08.848Z,11.63
2022-12-08T07:13:35.774Z,11.40
2022-12-08T07:16:06.143Z,9.84
2022-12-08T07:18:33.031Z,8.68
2022-12-08T07:21:11.150Z,7.79
2022-12-08T07:23:38.342Z,8.06
2022-12-08T07:26:08.460Z,8.72
2022-12-08T07:28:37.483Z,8.47
2022-12-08T07:31:05.240Z,8.60
2022-12-08T07:33:33.017Z,8.74
2022-12-08T07:36:02.255Z,8.53
2022-12-08T07:38:29.641Z,9.60
2022-12-08T07:40:56.912Z,10.17
2022-12-08T07:43:24.044Z,9.78
2022-12-08T07:45:51.137Z,9.80
2022-12-08T07:48:18.682Z,9.48
2022-12-08T07:50:46.311Z,8.89
2022-12-08T07:53:13.679Z,9.22
2022-12-08T07:55:42.729Z,10.40
2022-12-08T07:58:10.281Z,10.98
2022-12-08T08:00:37.501Z,10.26
2022-12-08T08:03:04.656Z,10.03
2022-12-08T08:05:31.763Z,11.85
2022-12-08T08:07:58.721Z,11.91
2022-12-08T08:10:25.699Z,11.47
2022-12-08T08:12:52.586Z,11.18
2022-12-08T08:15:21.272Z,10.92
2022-12-08T08:17:52.328Z,10.08
2022-12-08T08:20:20.171Z,9.10
2022-12-08T08:22:48.326Z,8.86
2022-12-08T08:25:16.337Z,8.17
2022-12-08T08:27:43.589Z,8.05
2022-12-08T08:30:18.178Z,8.15
2022-12-08T08:32:47.295Z,8.22
2022-12-08T08:35:14.382Z,8.30
2022-12-08T08:37:45.755Z,8.54
2022-12-08T08:40:15.922Z,8.06
2022-12-08T08:42:42.788Z,8.20
2022-12-08T08:45:10.138Z,8.48
2022-12-08T08:47:37.021Z,8.97
2022-12-08T08:50:04.952Z,9.47
2022-12-08T08:52:32.056Z,9.64
2022-12-08T08:54:58.962Z,9.37
2022-12-08T08:57:26.346Z,9.35
2022-12-08T08:59:54.102Z,9.29
2022-12-08T09:02:21.439Z,9.53
2022-12-08T09:04:48.690Z,9.79
2022-12-08T09:07:16.294Z,10.67
2022-12-08T09:09:43.338Z,10.68
2022-12-08T09:12:10.442Z,10.53
2022-12-08T09:14:37.353Z,10.48
2022-12-08T09:17:04.509Z,10.50
2022-12-08T09:19:31.766Z,10.30
2022-12-08T09:21:58.668Z,10.52
2022-12-08T09:24:25.608Z,11.15
2022-12-08T09:26:52.501Z,11.27
2022-12-08T09:29:19.408Z,11.78
2022-12-08T09:31:46.527Z,12.12
2022-12-08T09:34:13.666Z,12.07
2022-12-08T09:36:40.863Z,12.09
2022-12-08T09:39:08.121Z,12.34
2022-12-08T09:41:44.809Z,12.55
2022-12-08T09:45:05.555Z,13.07
2022-12-08T09:47:39.220Z,13.53
2022-12-08T09:50:30.318Z,14.13
2022-12-08T09:53:09.521Z,13.37
2022-12-08T09:56:00.362Z,12.92
2022-12-08T09:58:55.680Z,14.09
2022-12-08T10:01:27.255Z,14.33
2022-12-08T10:03:56.935Z,14.61
2022-12-08T10:06:48.013Z,14.63
2022-12-08T10:09:31.062Z,13.85
2022-12-08T10:12:00.774Z,13.80
2022-12-08T10:14:33.650Z,14.25
2022-12-08T10:17:24.071Z,14.21
2022-12-08T10:19:57.944Z,14.34
2022-12-08T10:22:27.399Z,14.53
2022-12-08T10:25:16.928Z,14.93
2022-12-08T10:27:44.394Z,15.20
2022-12-08T10:30:17.493Z,15.23
2022-12-08T10:32:48.238Z,15.37
2022-12-08T10:35:17.045Z,17.62
2022-12-08T10:38:06.454Z,19.04
2022-12-08T10:40:43.869Z,19.03
2022-12-08T10:43:23.145Z,19.27
2022-12-08T10:45:50.267Z,19.84
2022-12-08T10:48:27.905Z,19.79
2022-12-08T10:51:00.094Z,19.28
2022-12-08T10:53:32.759Z,18.24
2022-12-08T10:56:02.639Z,17.24
2022-12-08T10:58:41.528Z,17.93
2022-12-08T11:01:18.820Z,18.80
2022-12-08T11:03:50.228Z,19.83
2022-12-08T11:06:29.553Z,20.93
2022-12-08T11:08:58.172Z,21.50
2022-12-08T11:11:47.793Z,21.36
2022-12-08T11:14:28.322Z,22.57
2022-12-08T11:17:05.506Z,22.46
2022-12-08T11:19:38.680Z,23.26
2022-12-08T11:22:38.487Z,23.37
2022-12-08T11:25:08.527Z,23.76
2022-12-08T11:27:37.941Z,24.06
2022-12-08T11:30:20.410Z,24.17
2022-12-08T11:32:59.704Z,24.01
2022-12-08T11:35:59.326Z,23.15
2022-12-08T11:38:28.278Z,22.66
2022-12-08T11:41:15.499Z,22.15
2022-12-08T11:43:59.330Z,20.20
2022-12-08T11:46:33.404Z,19.65
2022-12-08T11:49:06.839Z,19.92
2022-12-08T11:51:36.675Z,19.68
2022-12-08T11:54:11.251Z,19.26
2022-12-08T11:56:59.485Z,19.44
2022-12-08T11:59:46.171Z,19.94
2022-12-08T12:02:21.327Z,19.23
2022-12-08T12:04:56.473Z,19.01
2022-12-08T12:07:44.882Z,17.93
2022-12-08T12:10:20.941Z,17.30
2022-12-08T12:13:08.029Z,16.05
2022-12-08T12:15:59.522Z,14.77
2022-12-08T12:18:40.293Z,13.96
2022-12-08T12:21:29.451Z,14.14
2022-12-08T12:24:05.504Z,14.54
2022-12-08T12:26:37.646Z,14.55
2022-12-08T12:29:07.014Z,15.06
2022-12-08T12:31:41.679Z,15.49
2022-12-08T12:34:34.947Z,15.06
2022-12-08T12:37:15.046Z,14.87
2022-12-08T12:39:53.797Z,13.79
2022-12-08T12:42:38.766Z,13.49
2022-12-08T12:45:17.602Z,13.52
2022-12-08T12:47:55.617Z,14.44
2022-12-08T12:50:37.234Z,13.83
2022-12-08T12:53:10.702Z,13.40
2022-12-08T12:55:46.765Z,13.01
2022-12-08T12:58:29.248Z,12.65
2022-12-08T13:01:11.861Z,12.35
2022-12-08T13:03:45.849Z,12.15
2022-12-08T13:06:15.321Z,11.88
2022-12-08T13:08:53.099Z,11.63
2022-12-08T13:11:22.089Z,11.36
2022-12-08T13:14:03.879Z,11.24
2022-12-08T13:16:55.148Z,11.12
2022-12-08T13:19:22.673Z,11.06
2022-12-08T13:21:49.685Z,11.16
2022-12-08T13:24:25.695Z,11.21
2022-12-08T13:27:04.604Z,11.03
2022-12-08T13:29:33.500Z,11.38
2022-12-08T13:32:04.369Z,11.27
2022-12-08T13:34:45.544Z,11.16
2022-12-08T13:37:12.446Z,11.25
2022-12-08T13:39:39.287Z,11.15
2022-12-08T13:42:12.451Z,11.39
2022-12-08T13:48:14.036Z,11.11
2022-12-08T13:52:59.839Z,11.12
2022-12-08T13:59:30.509Z,11.07
2022-12-08T14:02:15.991Z,10.90
2022-12-08T14:05:17.451Z,11.00
2022-12-08T14:07:34.995Z,11.41
2022-12-08T14:10:03.761Z,11.02
2022-12-08T14:12:31.804Z,11.19
2022-12-08T14:15:04.140Z,11.13
2022-12-08T14:17:51.466Z,11.61
2022-12-08T14:20:57.953Z,11.72
2022-12-08T14:23:22.622Z,11.38
2022-12-08T14:25:49.614Z,11.74
2022-12-08T14:28:16.932Z,11.11
2022-12-08T14:30:44.206Z,10.78
2022-12-08T14:33:17.171Z,10.80
2022-12-08T14:35:50.746Z,10.66
2022-12-08T14:38:19.813Z,10.54
2022-12-08T14:41:01.036Z,10.58
2022-12-08T14:43:29.626Z,10.58
2022-12-08T14:46:01.687Z,10.48
2022-12-08T14:48:31.551Z,10.52
2022-12-08T14:51:02.826Z,10.52
2022-12-08T14:53:41.887Z,10.56
2022-12-08T14:56:16.736Z,10.78
2022-12-08T14:58:44.199Z,10.85
2022-12-08T15:01:14.370Z,10.74
2022-12-08T15:03:43.619Z,10.90
2022-12-08T15:06:14.480Z,10.84
2022-12-08T15:08:59.419Z,10.90
2022-12-08T15:11:35.179Z,11.10
2022-12-08T15:14:02.980Z,11.32
2022-12-08T15:16:38.403Z,11.41
2022-12-08T15:19:16.546Z,11.36
2022-12-08T15:21:45.617Z,10.91
2022-12-08T15:24:14.245Z,11.40
2022-12-08T15:26:49.999Z,11.34
2022-12-08T15:29:26.974Z,11.23
2022-12-08T15:32:00.595Z,11.22
2022-12-08T15:34:27.625Z,11.21
2022-12-08T15:36:55.090Z,11.58
2022-12-08T15:39:27.630Z,11.61
2022-12-08T15:41:54.522Z,11.23
2022-12-08T15:44:21.516Z,11.26
2022-12-08T15:46:50.129Z,11.35
2022-12-08T15:49:19.748Z,11.05
2022-12-08T15:51:47.184Z,10.96
2022-12-08T15:54:14.626Z,11.10
2022-12-08T15:57:17.888Z,11.07
2022-12-08T15:59:37.402Z,11.34
2022-12-08T16:02:04.351Z,11.75
2022-12-08T16:07:29.467Z,11.96
2022-12-08T16:09:56.786Z,12.01
2022-12-08T16:15:51.754Z,11.96
2022-12-08T16:18:26.950Z,12.18
2022-12-08T16:23:44.019Z,11.36
2022-12-08T16:26:39.412Z,11.00
2022-12-08T16:29:05.268Z,10.91
2022-12-08T16:31:32.742Z,10.88
2022-12-08T16:33:59.876Z,10.94
2022-12-08T16:36:26.722Z,11.24
2022-12-08T16:38:53.635Z,11.13
2022-12-08T16:41:39.217Z,11.09
2022-12-08T16:44:06.361Z,11.23
2022-12-08T16:46:33.686Z,11.10
2022-12-08T16:49:00.772Z,11.16
2022-12-08T16:51:27.815Z,11.29
2022-12-08T16:53:57.075Z,11.44
2022-12-08T16:56:31.942Z,11.66
2022-12-08T16:59:00.605Z,11.96
2022-12-08T17:01:27.770Z,11.78
2022-12-08T17:04:29.693Z,11.62
2022-12-08T17:06:41.763Z,12.07
2022-12-08T17:09:08.843Z,12.37
2022-12-08T17:11:42.276Z,12.74
2022-12-08T17:14:11.128Z,12.74
2022-12-08T17:16:38.475Z,12.78
2022-12-08T17:19:05.606Z,12.89
2022-12-08T17:21:32.627Z,13.01
2022-12-08T17:23:59.528Z,12.88
2022-12-08T17:26:26.425Z,12.46
2022-12-08T17:29:01.515Z,12.39
2022-12-08T17:31:31.622Z,11.88
2022-12-08T17:34:03.863Z,11.81
2022-12-08T17:36:30.869Z,11.91
2022-12-08T17:38:59.970Z,12.02
2022-12-08T17:41:27.581Z,11.88
2022-12-08T17:43:54.472Z,11.59
2022-12-08T17:46:22.819Z,11.43
2022-12-08T17:48:50.147Z,11.47
2022-12-08T17:51:17.125Z,11.82
2022-12-08T17:53:44.082Z,11.78
2022-12-08T17:56:16.922Z,11.70
2022-12-08T17:58:44.913Z,12.03
2022-12-08T18:01:12.763Z,11.97
2022-12-08T18:03:40.152Z,11.70
2022-12-08T18:06:12.483Z,11.49
2022-12-08T18:08:40.444Z,11.54
2022-12-08T18:11:12.387Z,11.67
2022-12-08T18:13:39.363Z,11.55
2022-12-08T18:16:06.531Z,11.58
2022-12-08T18:18:33.454Z,11.40
2022-12-08T18:21:00.496Z,11.35
2022-12-08T18:23:27.541Z,11.39
2022-12-08T18:25:54.570Z,11.60
2022-12-08T18:28:21.487Z,11.86
2022-12-08T18:30:48.560Z,12.20
2022-12-08T18:33:15.674Z,12.62
2022-12-08T18:35:42.564Z,12.06
2022-12-08T18:38:09.606Z,11.63
2022-12-08T18:40:36.493Z,11.49
2022-12-08T18:43:03.836Z,11.06
2022-12-08T18:45:31.228Z,10.95
2022-12-08T18:47:58.155Z,11.02
2022-12-08T18:50:25.114Z,10.98
2022-12-08T18:52:52.176Z,10.98
2022-12-08T18:55:19.045Z,10.99
2022-12-08T18:57:46.382Z,10.68
2022-12-08T19:00:15.995Z,10.75
2022-12-08T19:02:43.285Z,10.85
2022-12-08T19:05:12.614Z,11.20
2022-12-08T19:07:39.786Z,11.39
2022-12-08T19:10:07.577Z,11.52
2022-12-08T19:12:34.730Z,11.56
2022-12-08T19:15:01.764Z,11.61
2022-12-08T19:17:29.873Z,11.52
2022-12-08T19:19:56.841Z,11.55
2022-12-08T19:22:23.806Z,11.46
2022-12-08T19:24:50.756Z,11.18
2022-12-08T19:27:18.738Z,10.63
2022-12-08T19:29:45.626Z,10.84
2022-12-08T19:32:12.495Z,10.66
2022-12-08T19:34:39.507Z,10.53
2022-12-08T19:37:07.012Z,11.30
2022-12-08T19:39:52.844Z,11.47
2022-12-08T19:42:39.313Z,11.13
2022-12-08T19:45:19.573Z,11.52
2022-12-08T19:47:46.970Z,11.73
2022-12-08T19:50:34.357Z,11.89
2022-12-08T19:53:02.146Z,11.84
2022-12-08T19:55:29.475Z,11.79
2022-12-08T19:57:59.852Z,11.00
2022-12-08T20:00:26.791Z,10.29
2022-12-08T20:02:53.799Z,10.31
2022-12-08T20:05:20.809Z,10.28
2022-12-08T20:07:47.815Z,10.51
2022-12-08T20:10:22.290Z,10.88
2022-12-08T20:12:49.350Z,11.02
2022-12-08T20:15:16.449Z,10.80
2022-12-08T20:17:43.873Z,11.12
2022-12-08T20:20:13.269Z,11.34
2022-12-08T20:22:40.663Z,11.78
2022-12-08T20:25:12.834Z,12.08
2022-12-08T20:27:40.515Z,12.15
2022-12-08T20:30:13.310Z,12.18
2022-12-08T20:32:42.077Z,11.94
2022-12-08T20:35:09.446Z,11.92
2022-12-08T20:37:36.569Z,11.99
2022-12-08T20:40:06.159Z,12.21
2022-12-08T20:42:33.127Z,12.05
2022-12-08T20:45:00.032Z,12.18
2022-12-08T20:47:27.013Z,12.28
2022-12-08T20:49:54.214Z,12.01
2022-12-08T20:52:21.123Z,11.80
2022-12-08T20:54:48.116Z,12.27
2022-12-08T20:57:15.224Z,12.65
2022-12-08T20:59:42.382Z,12.09
2022-12-08T21:02:11.195Z,11.70
2022-12-08T21:04:38.468Z,11.51
2022-12-08T21:07:05.627Z,11.33
2022-12-08T21:09:32.948Z,11.23
2022-12-08T21:11:59.907Z,11.07
2022-12-08T21:14:27.090Z,11.33
2022-12-08T21:16:54.692Z,11.52
2022-12-08T21:19:22.440Z,11.56
2022-12-08T21:21:50.860Z,11.46
2022-12-08T21:24:19.044Z,10.89
2022-12-08T21:26:46.225Z,10.68
2022-12-08T21:29:13.454Z,10.67
2022-12-08T21:31:41.020Z,10.89
2022-12-08T21:34:08.285Z,10.94
2022-12-08T21:36:35.406Z,11.22
2022-12-08T21:39:03.013Z,11.39
2022-12-08T21:41:49.416Z,11.27
2022-12-08T21:44:18.747Z,10.80
2022-12-08T21:46:45.976Z,10.78
2022-12-08T21:49:13.242Z,10.57
2022-12-08T21:51:42.385Z,10.35
2022-12-08T21:54:16.692Z,9.96
2022-12-08T21:56:46.911Z,9.78
2022-12-08T21:59:14.124Z,9.78
2022-12-08T22:01:43.487Z,9.78
2022-12-08T22:04:12.592Z,9.77
2022-12-08T22:06:39.956Z,10.03
2022-12-08T22:09:07.325Z,10.14
2022-12-08T22:11:34.491Z,10.09
2022-12-08T22:14:01.629Z,10.23
2022-12-08T22:16:28.679Z,10.40
2022-12-08T22:18:55.820Z,11.01
2022-12-08T22:21:22.792Z,11.58
2022-12-08T22:23:50.151Z,12.03
2022-12-08T22:26:17.069Z,11.55
2022-12-08T22:28:44.824Z,11.41
2022-12-08T22:31:14.995Z,11.84
2022-12-08T22:33:43.547Z,12.38
2022-12-08T22:36:19.757Z,12.51
2022-12-08T22:38:46.924Z,12.70
2022-12-08T22:41:14.348Z,12.85
2022-12-08T22:43:41.684Z,12.73
2022-12-08T22:46:18.186Z,12.83
2022-12-08T22:48:45.650Z,12.92
2022-12-08T22:51:13.090Z,13.17
2022-12-08T22:53:40.378Z,12.93
2022-12-08T22:56:09.852Z,12.65
2022-12-08T22:58:37.963Z,12.79
2022-12-08T23:01:05.273Z,12.51
2022-12-08T23:03:33.846Z,12.39
2022-12-08T23:06:01.609Z,12.82
2022-12-08T23:08:28.718Z,13.14
2022-12-08T23:10:55.885Z,13.15
2022-12-08T23:13:23.034Z,12.89
2022-12-08T23:15:50.131Z,11.57
2022-12-08T23:18:21.205Z,11.17
2022-12-08T23:20:48.302Z,11.11
2022-12-08T23:23:15.606Z,10.97
2022-12-08T23:25:43.449Z,11.32
2022-12-08T23:28:11.368Z,11.40
2022-12-08T23:30:41.496Z,11.53
2022-12-08T23:33:08.617Z,11.51
2022-12-08T23:35:35.552Z,11.70
2022-12-08T23:38:02.524Z,11.53
2022-12-08T23:40:29.471Z,11.19
2022-12-08T23:42:56.580Z,11.08
2022-12-08T23:45:23.492Z,11.54
2022-12-08T23:47:50.476Z,11.85
2022-12-08T23:50:17.653Z,11.56
2022-12-08T23:52:44.823Z,11.43
2022-12-08T23:55:11.795Z,11.49
2022-12-08T23:57:38.836Z,11.67
